createdAt,value
2022-11-08T00:02:00.300Z,65.76
2022-11-08T00:04:31.367Z,62.54
2022-11-08T00:07:19.223Z,60.81
2022-11-08T00:10:07.939Z,57.98
2022-11-08T00:12:56.330Z,59.24
2022-11-08T00:15:27.709Z,63.70
2022-11-08T00:17:58.618Z,66.68
2022-11-08T00:20:29.876Z,64.48
2022-11-08T00:23:00.380Z,62.32
2022-11-08T00:25:31.451Z,61.19
2022-11-08T00:28:01.840Z,60.13
2022-11-08T00:30:32.899Z,58.35
2022-11-08T00:33:04.211Z,59.30
2022-11-08T00:35:35.100Z,62.03
2022-11-08T00:38:07.316Z,66.74
2022-11-08T00:40:38.219Z,66.05
2022-11-08T00:43:08.632Z,63.03
2022-11-08T00:45:39.778Z,60.93
2022-11-08T00:48:10.273Z,59.79
2022-11-08T00:50:42.048Z,57.88
2022-11-08T00:53:12.568Z,59.42
2022-11-08T00:55:43.301Z,61.80
2022-11-08T00:58:13.713Z,66.50
2022-11-08T01:00:44.551Z,66.16
2022-11-08T01:03:21.335Z,63.28
2022-11-08T01:05:53.187Z,61.09
2022-11-08T01:08:24.330Z,59.89
2022-11-08T01:10:55.604Z,57.89
2022-11-08T01:13:26.212Z,59.16
2022-11-08T01:15:57.041Z,63.27
2022-11-08T01:18:27.904Z,66.59
2022-11-08T01:21:03.534Z,64.29
2022-11-08T01:32:49.913Z,58.89
2022-11-08T01:35:20.727Z,62.25
2022-11-08T01:37:56.058Z,66.66
2022-11-08T01:40:27.300Z,64.71
2022-11-08T01:42:57.652Z,62.53
2022-11-08T01:45:46.177Z,60.59
2022-11-08T01:48:16.928Z,58.97
2022-11-08T01:50:48.675Z,58.59
2022-11-08T01:53:19.808Z,61.30
2022-11-08T01:55:51.767Z,65.32
2022-11-08T01:58:24.458Z,66.29
2022-11-08T02:00:55.472Z,63.76
2022-11-08T02:03:26.813Z,61.45
2022-11-08T02:05:58.082Z,59.95
2022-11-08T02:19:05.571Z,65.27
2022-11-08T02:21:38.936Z,62.54
2022-11-08T02:24:10.738Z,62.12
2022-11-08T02:26:41.739Z,60.69
2022-11-08T02:29:29.514Z,58.38
2022-11-08T02:32:00.673Z,59.45
2022-11-08T02:34:32.612Z,61.93
2022-11-08T02:37:04.534Z,66.50
2022-11-08T02:39:35.567Z,66.50
2022-11-08T02:42:06.443Z,63.71
2022-11-08T02:44:37.339Z,61.39
2022-11-08T02:47:08.234Z,59.73
2022-11-08T02:49:39.139Z,57.76
2022-11-08T02:52:10.068Z,60.18
2022-11-08T02:54:40.731Z,64.55
2022-11-08T02:57:11.539Z,66.02
2022-11-08T02:59:42.377Z,63.31
2022-11-08T03:02:13.186Z,61.73
2022-11-08T03:04:44.101Z,60.12
2022-11-08T03:07:14.759Z,58.13
2022-11-08T03:09:45.443Z,58.66
2022-11-08T03:12:16.226Z,61.49
2022-11-08T03:14:47.064Z,65.83
2022-11-08T03:17:17.696Z,65.78
2022-11-08T03:19:48.424Z,63.94
2022-11-08T03:22:18.949Z,61.89
2022-11-08T03:24:49.529Z,59.96
2022-11-08T03:27:20.695Z,58.29
2022-11-08T03:29:51.514Z,59.85
2022-11-08T03:32:22.873Z,62.40
2022-11-08T03:34:53.561Z,66.45
2022-11-08T03:37:24.392Z,63.87
2022-11-08T03:39:55.823Z,61.54
2022-11-08T03:42:26.675Z,59.79
2022-11-08T03:44:57.400Z,58.43
2022-11-08T03:47:28.312Z,61.96
2022-11-08T03:49:59.086Z,65.43
2022-11-08T03:52:29.699Z,64.88
2022-11-08T03:55:00.567Z,61.77
2022-11-08T03:57:31.363Z,59.42
2022-11-08T04:00:01.919Z,59.43
2022-11-08T04:02:41.921Z,64.00
2022-11-08T04:05:13.325Z,66.48
2022-11-08T04:07:44.335Z,63.88
2022-11-08T04:10:15.683Z,61.35
2022-11-08T04:13:04.133Z,59.95
2022-11-08T04:15:34.879Z,58.78
2022-11-08T04:18:23.008Z,62.48
2022-11-08T04:21:11.580Z,65.71
2022-11-08T04:23:42.219Z,63.01
2022-11-08T04:26:13.124Z,61.24
2022-11-08T04:28:43.993Z,60.83
2022-11-08T04:31:15.785Z,59.99
2022-11-08T04:33:46.600Z,58.61
2022-11-08T04:36:17.723Z,60.65
2022-11-08T04:38:50.882Z,65.67
2022-11-08T04:41:22.942Z,65.63
2022-11-08T04:43:54.194Z,62.14
2022-11-08T04:46:25.951Z,60.47
2022-11-08T04:48:57.203Z,59.93
2022-11-08T04:51:28.826Z,58.39
2022-11-08T04:54:00.317Z,61.37
2022-11-08T04:56:31.934Z,66.04
2022-11-08T04:59:02.654Z,65.78
2022-11-08T05:01:33.284Z,63.42
2022-11-08T05:04:03.790Z,61.12
2022-11-08T05:06:34.789Z,60.71
2022-11-08T05:09:05.388Z,59.68
2022-11-08T05:11:36.177Z,58.14
2022-11-08T05:14:06.789Z,60.23
2022-11-08T05:28:37.309Z,59.32
2022-11-08T05:31:09.150Z,61.87
2022-11-08T05:33:39.685Z,67.66
2022-11-08T05:36:11.751Z,66.54
2022-11-08T05:38:42.787Z,62.78
2022-11-08T05:41:14.335Z,61.05
2022-11-08T05:43:46.704Z,60.92
2022-11-08T05:46:18.380Z,60.43
2022-11-08T05:48:49.499Z,58.93
2022-11-08T05:51:20.576Z,59.55
2022-11-08T05:53:51.120Z,64.48
2022-11-08T05:56:21.906Z,64.32
2022-11-08T05:58:52.564Z,62.53
2022-11-08T06:01:23.159Z,61.89
2022-11-08T06:03:53.914Z,61.21
2022-11-08T06:06:24.829Z,60.09
2022-11-08T06:08:55.583Z,58.05
2022-11-08T06:11:27.313Z,59.52
2022-11-08T06:13:58.181Z,64.47
2022-11-08T06:16:28.778Z,65.03
2022-11-08T06:18:59.625Z,62.68
2022-11-08T06:21:30.258Z,60.43
2022-11-08T06:24:00.891Z,58.32
2022-11-08T06:26:31.518Z,59.57
2022-11-08T06:29:02.523Z,62.37
2022-11-08T06:31:33.009Z,66.59
2022-11-08T06:34:03.756Z,65.85
2022-11-08T06:36:34.245Z,63.28
2022-11-08T06:39:05.207Z,60.85
2022-11-08T06:41:36.004Z,60.12
2022-11-08T06:44:06.854Z,59.34
2022-11-08T06:46:37.547Z,57.56
2022-11-08T06:49:08.246Z,59.65
2022-11-08T06:51:38.950Z,63.27
2022-11-08T06:54:11.189Z,67.07
2022-11-08T06:56:44.868Z,64.68
2022-11-08T06:59:15.472Z,61.77
2022-11-08T07:01:46.207Z,60.15
2022-11-08T07:04:17.355Z,57.87
2022-11-08T07:06:48.101Z,59.12
2022-11-08T07:09:19.097Z,60.76
2022-11-08T07:11:49.874Z,65.47
2022-11-08T07:14:20.983Z,65.34
2022-11-08T07:16:52.018Z,61.64
2022-11-08T07:19:22.671Z,58.60
2022-11-08T07:21:53.283Z,57.25
2022-11-08T07:24:24.054Z,59.65
2022-11-08T07:26:54.800Z,61.27
2022-11-08T07:29:25.746Z,66.04
2022-11-08T07:31:56.556Z,66.46
2022-11-08T07:34:27.979Z,64.16
2022-11-08T07:36:58.802Z,62.18
2022-11-08T07:39:29.719Z,60.50
2022-11-08T07:42:00.480Z,58.09
2022-11-08T07:44:33.176Z,57.48
2022-11-08T07:47:04.204Z,58.87
2022-11-08T07:49:36.601Z,64.46
2022-11-08T07:52:07.275Z,64.15
2022-11-08T07:54:37.916Z,62.29
2022-11-08T07:57:08.583Z,58.73
2022-11-08T07:59:39.220Z,56.82
2022-11-08T08:02:10.495Z,58.17
2022-11-08T08:04:41.275Z,60.30
2022-11-08T08:07:12.627Z,62.75
2022-11-08T08:09:43.350Z,65.01
2022-11-08T08:12:14.025Z,61.52
2022-11-08T08:14:44.951Z,57.71
2022-11-08T08:17:15.770Z,56.70
2022-11-08T08:19:46.534Z,58.93
2022-11-08T08:22:17.324Z,62.94
2022-11-08T08:24:48.269Z,63.55
2022-11-08T08:27:18.790Z,61.24
2022-11-08T08:29:50.680Z,59.13
2022-11-08T08:32:21.714Z,56.84
2022-11-08T08:34:52.424Z,57.91
2022-11-08T08:37:23.110Z,60.68
2022-11-08T08:39:53.602Z,64.29
2022-11-08T08:42:24.312Z,64.72
2022-11-08T08:44:55.628Z,59.16
2022-11-08T08:47:26.805Z,57.76
2022-11-08T08:49:57.752Z,56.98
2022-11-08T08:52:28.377Z,59.76
2022-11-08T08:54:58.913Z,64.13
2022-11-08T08:57:29.731Z,63.09
2022-11-08T09:02:51.578Z,55.97
2022-11-08T09:05:22.583Z,56.39
2022-11-08T09:07:55.443Z,58.72
2022-11-08T09:10:26.208Z,60.50
2022-11-08T09:12:57.169Z,61.57
2022-11-08T09:15:28.350Z,63.53
2022-11-08T09:17:59.297Z,61.93
2022-11-08T09:20:30.316Z,57.27
2022-11-08T09:23:03.826Z,56.69
2022-11-08T09:25:32.688Z,58.45
2022-11-08T09:28:03.359Z,59.03
2022-11-08T09:30:34.158Z,62.99
2022-11-08T09:33:05.493Z,61.67
2022-11-08T09:35:36.148Z,58.56
2022-11-08T09:38:07.649Z,56.27
2022-11-08T09:40:41.722Z,56.99
2022-11-08T09:43:25.842Z,60.45
2022-11-08T09:45:57.611Z,59.37
2022-11-08T09:48:30.998Z,58.22
2022-11-08T09:51:05.523Z,59.82
2022-11-08T09:53:40.317Z,60.94
2022-11-08T09:56:15.077Z,60.81
2022-11-08T09:58:48.875Z,63.33
2022-11-08T10:01:23.276Z,63.31
2022-11-08T10:03:57.996Z,59.80
2022-11-08T10:06:43.989Z,54.81
2022-11-08T10:09:25.734Z,54.83
2022-11-08T10:12:03.714Z,55.61
2022-11-08T10:14:50.880Z,59.15
2022-11-08T10:17:31.838Z,60.80
2022-11-08T10:20:08.389Z,59.87
2022-11-08T10:22:44.428Z,59.74
2022-11-08T10:25:21.398Z,59.67
2022-11-08T10:27:52.644Z,62.77
2022-11-08T10:30:24.224Z,61.82
2022-11-08T10:32:55.744Z,56.63
2022-11-08T10:35:29.745Z,53.66
2022-11-08T10:38:01.006Z,56.31
2022-11-08T10:40:37.674Z,58.91
2022-11-08T10:43:11.301Z,58.92
2022-11-08T10:45:42.414Z,59.91
2022-11-08T10:48:13.412Z,59.24
2022-11-08T10:50:46.145Z,60.45
2022-11-08T10:53:19.969Z,60.83
2022-11-08T10:55:52.115Z,60.66
2022-11-08T10:58:38.033Z,59.46
2022-11-08T11:01:14.570Z,59.14
2022-11-08T11:03:45.610Z,58.35
2022-11-08T11:06:24.126Z,59.50
2022-11-08T11:08:57.622Z,57.97
2022-11-08T11:11:36.453Z,58.20
2022-11-08T11:14:10.006Z,59.11
2022-11-08T11:16:50.106Z,56.75
2022-11-08T11:19:20.581Z,56.17
2022-11-08T11:21:54.666Z,57.17
2022-11-08T11:24:25.888Z,58.78
2022-11-08T11:27:04.112Z,58.43
2022-11-08T11:29:35.337Z,58.06
2022-11-08T11:32:26.380Z,56.04
2022-11-08T11:34:59.047Z,56.39
2022-11-08T11:37:35.684Z,57.19
2022-11-08T11:40:09.523Z,57.65
2022-11-08T11:42:46.115Z,58.03
2022-11-08T11:45:21.121Z,56.07
2022-11-08T11:47:53.667Z,58.21
2022-11-08T11:50:29.242Z,58.10
2022-11-08T11:53:01.123Z,57.55
2022-11-08T11:55:44.446Z,57.03
2022-11-08T11:58:21.304Z,57.51
2022-11-08T12:00:56.958Z,57.44
2022-11-08T12:03:39.545Z,55.50
2022-11-08T12:06:18.726Z,54.90
2022-11-08T12:22:37.624Z,55.00
2022-11-08T12:25:11.953Z,54.48
2022-11-08T12:27:45.448Z,55.69
2022-11-08T12:30:18.432Z,55.72
2022-11-08T12:32:57.757Z,55.53
2022-11-08T12:35:35.740Z,55.21
2022-11-08T12:38:12.443Z,54.96
2022-11-08T12:40:46.809Z,55.34
2022-11-08T12:43:24.560Z,54.13
2022-11-08T12:46:01.666Z,52.56
2022-11-08T12:48:47.447Z,52.66
2022-11-08T12:51:22.269Z,52.77
2022-11-08T12:54:07.831Z,52.88
2022-11-08T12:56:40.629Z,53.10
2022-11-08T12:59:16.580Z,52.96
2022-11-08T13:01:47.604Z,53.66
2022-11-08T13:04:22.434Z,54.07
2022-11-08T13:06:58.177Z,54.23
2022-11-08T13:09:38.145Z,54.30
2022-11-08T13:12:14.401Z,54.25
2022-11-08T13:14:45.287Z,54.50
2022-11-08T13:17:17.372Z,54.27
2022-11-08T13:20:05.125Z,53.90
2022-11-08T13:23:08.325Z,53.92
2022-11-08T13:25:42.786Z,51.96
2022-11-08T13:28:30.894Z,48.96
2022-11-08T13:31:03.260Z,48.62
2022-11-08T13:33:34.841Z,48.06
2022-11-08T13:36:10.988Z,46.92
2022-11-08T13:38:47.267Z,44.39
2022-11-08T13:41:19.342Z,42.31
2022-11-08T13:43:50.543Z,40.85
2022-11-08T13:46:38.383Z,39.21
2022-11-08T13:49:16.104Z,39.27
2022-11-08T13:51:47.520Z,38.22
2022-11-08T13:54:48.603Z,38.36
2022-11-08T13:57:42.985Z,37.98
2022-11-08T14:00:33.769Z,36.71
2022-11-08T14:03:25.024Z,37.25
2022-11-08T14:05:57.676Z,36.89
2022-11-08T14:08:27.354Z,37.27
2022-11-08T14:11:11.409Z,38.30
2022-11-08T14:13:52.411Z,39.31
2022-11-08T14:16:25.821Z,40.95
2022-11-08T14:18:56.533Z,41.77
2022-11-08T14:21:28.066Z,42.61
2022-11-08T14:23:58.810Z,43.47
2022-11-08T14:26:31.498Z,44.78
2022-11-08T14:29:02.202Z,45.42
2022-11-08T14:31:33.890Z,46.49
2022-11-08T14:34:04.416Z,47.04
2022-11-08T14:36:36.246Z,47.72
2022-11-08T14:39:13.247Z,48.50
2022-11-08T14:41:46.644Z,48.86
2022-11-08T14:44:19.300Z,49.12
2022-11-08T14:46:50.408Z,49.08
2022-11-08T14:49:22.804Z,49.23
2022-11-08T14:52:07.850Z,49.53
2022-11-08T14:54:40.891Z,49.77
2022-11-08T14:57:35.546Z,50.12
2022-11-08T15:00:11.071Z,50.56
2022-11-08T15:02:43.099Z,51.15
2022-11-08T15:05:28.343Z,51.82
2022-11-08T15:07:59.689Z,52.56
2022-11-08T15:10:30.342Z,53.06
2022-11-08T15:13:01.273Z,53.56
2022-11-08T15:15:33.318Z,54.35
2022-11-08T15:18:11.963Z,54.85
2022-11-08T15:20:50.299Z,55.49
2022-11-08T15:23:34.074Z,55.80
2022-11-08T15:26:04.644Z,56.32
2022-11-08T15:28:35.559Z,56.75
2022-11-08T15:31:07.667Z,57.49
2022-11-08T15:33:40.983Z,57.94
2022-11-08T15:36:14.532Z,58.27
2022-11-08T15:38:48.736Z,58.67
2022-11-08T15:41:31.337Z,59.06
2022-11-08T15:44:21.224Z,59.21
2022-11-08T15:46:53.017Z,59.82
2022-11-08T15:49:24.784Z,60.31
2022-11-08T15:51:56.315Z,60.60
2022-11-08T15:54:28.056Z,60.84
2022-11-08T15:56:58.602Z,61.24
2022-11-08T15:59:30.846Z,61.62
2022-11-08T16:02:02.134Z,65.11
2022-11-08T16:04:32.883Z,66.86
2022-11-08T16:07:03.407Z,62.78
2022-11-08T16:09:34.502Z,57.40
2022-11-08T16:12:08.429Z,55.71
2022-11-08T16:14:40.419Z,57.37
2022-11-08T16:17:14.495Z,58.92
2022-11-08T16:19:45.073Z,59.62
2022-11-08T16:22:19.223Z,60.59
2022-11-08T16:24:50.160Z,61.12
2022-11-08T16:27:20.783Z,64.48
2022-11-08T16:29:51.519Z,65.83
2022-11-08T16:32:22.275Z,60.23
2022-11-08T16:34:52.920Z,56.34
2022-11-08T16:37:23.635Z,57.08
2022-11-08T16:39:54.395Z,58.49
2022-11-08T16:42:25.068Z,61.73
2022-11-08T16:44:56.227Z,65.20
2022-11-08T16:47:27.470Z,64.55
2022-11-08T16:49:59.213Z,61.33
2022-11-08T16:52:30.377Z,57.44
2022-11-08T16:55:01.284Z,56.48
2022-11-08T16:57:35.504Z,58.25
2022-11-08T17:00:07.315Z,59.27
2022-11-08T17:02:39.141Z,60.11
2022-11-08T17:05:12.821Z,60.68
2022-11-08T17:07:41.938Z,65.39
2022-11-08T17:10:15.837Z,67.21
2022-11-08T17:12:46.704Z,62.55
2022-11-08T17:15:18.177Z,58.32
2022-11-08T17:17:49.343Z,56.95
2022-11-08T17:20:21.018Z,58.67
2022-11-08T17:22:57.304Z,60.42
2022-11-08T17:25:28.201Z,61.44
2022-11-08T17:27:58.905Z,65.91
2022-11-08T17:30:29.785Z,66.19
2022-11-08T17:33:00.296Z,62.37
2022-11-08T17:35:31.069Z,58.78
2022-11-08T17:38:01.612Z,57.74
2022-11-08T17:40:32.344Z,59.19
2022-11-08T17:43:02.963Z,61.27
2022-11-08T17:45:34.198Z,65.23
2022-11-08T17:48:04.768Z,65.48
2022-11-08T17:50:35.624Z,62.95
2022-11-08T17:53:06.221Z,60.16
2022-11-08T17:55:36.858Z,57.57
2022-11-08T17:58:07.657Z,57.08
2022-11-08T18:00:38.680Z,59.25
2022-11-08T18:03:13.435Z,64.41
2022-11-08T18:05:52.963Z,65.36
2022-11-08T18:08:26.839Z,61.40
2022-11-08T18:10:58.364Z,59.85
2022-11-08T18:13:29.159Z,58.02
2022-11-08T18:16:07.909Z,58.43
2022-11-08T18:18:38.918Z,60.10
2022-11-08T18:21:10.186Z,61.03
2022-11-08T18:23:42.561Z,66.22
2022-11-08T18:26:13.893Z,66.89
2022-11-08T18:28:45.646Z,63.64
2022-11-08T18:31:18.321Z,61.13
2022-11-08T18:33:49.232Z,58.41
2022-11-08T18:36:20.949Z,58.65
2022-11-08T18:38:52.672Z,61.73
2022-11-08T18:41:25.469Z,65.73
2022-11-08T18:43:56.924Z,64.22
2022-11-08T18:46:28.450Z,62.26
2022-11-08T18:48:59.286Z,60.05
2022-11-08T18:51:30.321Z,57.02
2022-11-08T18:54:00.862Z,58.12
2022-11-08T18:56:31.909Z,60.06
2022-11-08T18:59:02.666Z,65.12
2022-11-08T19:01:33.718Z,65.91
2022-11-08T19:04:04.514Z,63.33
2022-11-08T19:06:35.388Z,61.16
2022-11-08T19:09:06.098Z,59.89
2022-11-08T19:11:37.423Z,57.82
2022-11-08T19:14:07.949Z,58.37
2022-11-08T19:16:38.561Z,60.63
2022-11-08T19:19:09.209Z,65.05
2022-11-08T19:21:41.977Z,65.24
2022-11-08T19:24:12.616Z,62.49
2022-11-08T19:26:43.435Z,60.51
2022-11-08T19:29:14.639Z,57.85
2022-11-08T19:31:45.611Z,58.58
2022-11-08T19:34:16.517Z,60.86
2022-11-08T19:36:52.738Z,65.25
2022-11-08T19:39:26.375Z,65.64
2022-11-08T19:41:57.070Z,62.80
2022-11-08T19:44:29.370Z,60.63
2022-11-08T19:47:01.054Z,57.95
2022-11-08T19:49:32.810Z,58.35
2022-11-08T19:52:05.440Z,59.88
2022-11-08T19:54:37.117Z,65.57
2022-11-08T19:57:09.203Z,65.31
2022-11-08T19:59:40.908Z,63.52
2022-11-08T20:02:12.754Z,61.65
2022-11-08T20:04:44.461Z,60.27
2022-11-08T20:07:16.143Z,57.94
2022-11-08T20:09:48.390Z,58.61
2022-11-08T20:12:19.857Z,60.53
2022-11-08T20:14:52.390Z,64.59
2022-11-08T20:17:23.937Z,65.59
2022-11-08T20:19:55.097Z,62.80
2022-11-08T20:22:25.905Z,60.94
2022-11-08T20:24:56.752Z,59.29
2022-11-08T20:27:27.189Z,57.58
2022-11-08T20:29:58.120Z,59.31
2022-11-08T20:32:29.450Z,61.55
2022-11-08T20:35:00.232Z,65.23
2022-11-08T20:37:30.923Z,66.01
2022-11-08T20:40:01.645Z,62.97
2022-11-08T20:42:32.280Z,61.01
2022-11-08T20:45:03.182Z,59.41
2022-11-08T20:47:35.928Z,57.00
2022-11-08T20:50:07.715Z,59.83
2022-11-08T20:52:38.463Z,61.97
2022-11-08T20:55:09.743Z,66.75
2022-11-08T20:57:40.255Z,66.51
2022-11-08T21:00:13.747Z,63.70
2022-11-08T21:02:44.699Z,61.77
2022-11-08T21:05:15.451Z,60.31
2022-11-08T21:08:19.769Z,58.38
2022-11-08T21:10:43.254Z,59.64
2022-11-08T21:13:15.551Z,62.22
2022-11-08T21:15:46.877Z,66.63
2022-11-08T21:18:20.373Z,64.84
2022-11-08T21:20:52.742Z,62.55
2022-11-08T21:23:23.561Z,61.10
2022-11-08T21:25:55.422Z,59.96
2022-11-08T21:28:26.693Z,57.86
2022-11-08T21:30:57.786Z,57.90
2022-11-08T21:33:28.547Z,60.11
2022-11-08T21:35:59.902Z,65.20
2022-11-08T21:38:30.689Z,66.26
2022-11-08T21:41:06.056Z,63.82
2022-11-08T21:43:37.741Z,61.45
2022-11-08T21:46:16.444Z,59.68
2022-11-08T21:48:47.690Z,57.94
2022-11-08T21:51:18.392Z,59.31
2022-11-08T21:53:54.673Z,62.06
2022-11-08T21:56:27.776Z,67.91
2022-11-08T21:58:58.777Z,66.96
2022-11-08T22:01:30.776Z,63.86
2022-11-08T22:04:01.791Z,60.59
2022-11-08T22:06:32.531Z,60.10
2022-11-08T22:09:03.715Z,58.54
2022-11-08T22:11:36.090Z,60.00
2022-11-08T22:14:07.077Z,63.97
2022-11-08T22:16:37.831Z,66.20
2022-11-08T22:19:09.499Z,64.06
2022-11-08T22:21:43.536Z,61.79
2022-11-08T22:24:17.273Z,60.36
2022-11-08T22:26:46.366Z,57.84
2022-11-08T22:29:18.023Z,56.43
2022-11-08T22:31:48.549Z,62.22
2022-11-08T22:34:19.345Z,65.94
2022-11-08T22:36:51.552Z,63.11
2022-11-08T22:39:23.230Z,60.08
2022-11-08T22:41:56.402Z,59.60
2022-11-08T22:44:27.289Z,63.93
2022-11-08T22:46:58.269Z,64.35
2022-11-08T22:49:29.316Z,62.24
2022-11-08T22:52:00.160Z,61.34
2022-11-08T22:54:31.882Z,61.20
2022-11-08T22:57:04.506Z,60.71
2022-11-08T22:59:35.321Z,59.77
2022-11-08T23:02:06.090Z,59.01
2022-11-08T23:04:37.027Z,61.84
2022-11-08T23:07:07.633Z,66.62
2022-11-08T23:09:38.454Z,64.96
2022-11-08T23:12:27.151Z,62.49
2022-11-08T23:15:15.580Z,60.57
2022-11-08T23:17:46.291Z,59.35
2022-11-08T23:20:35.360Z,59.30
2022-11-08T23:23:24.010Z,62.96
2022-11-08T23:25:55.864Z,65.09
2022-11-08T23:28:44.167Z,64.64
2022-11-08T23:31:32.735Z,62.58
2022-11-08T23:34:03.440Z,61.11
2022-11-08T23:36:34.333Z,59.97
2022-11-08T23:39:05.264Z,59.32
2022-11-08T23:41:53.415Z,62.46
2022-11-08T23:44:27.983Z,65.38
2022-11-08T23:46:59.657Z,63.37
2022-11-08T23:49:30.521Z,62.14
2022-11-08T23:52:01.262Z,60.82
2022-11-08T23:54:31.889Z,60.91
2022-11-08T23:57:02.753Z,60.89
2022-11-08T23:59:33.663Z,60.39
